Accueil
METAR-TAF:

METAR-TAF

Aéroports :

Aéroport de Samos

Samos, Grèce

latitude: 37-42N, longitude: 026-55E, altitude: 2 m

Observation

Le bulletin a été fait il y a 21 minutes, à 06:50 UTC
Vent 8 kt de nord, variant entre nord/nord-ouest et nord/nord-est
Température 20°C
Humidité 64%
Pression 1015 hPa
Visibilité 10 km ou plus
pas de nuages en-dessous de 1500 mètres et pas de cumulonimbus.

METAR: LGSM 170650Z 36008KT 330V030 CAVOK 20/13 Q1015

Heure: 10:11 (07:11 UTC)

Prévision

Le bulletin a été fait il y a 2 heures et 11 minutes, à 05:00 UTC
Prévision valable du 17 à 06 UTC au 17 à 15 UTC
Vent 13 kt de nord
Visibilité 10 km ou plus
Quelques nuages à une hauteur de 2000 ft

TAF: LGSM 170500Z 1706/1715 36013KT 9999 FEW020

Observations et prévisions météorologiques de plus de 4000 aéroports (messages METAR et TAF).

Les stations disponibles sont représentées par des disques jaunes et rouges sur la carte.

Passer la souris dessus pour voir le nom de la station.

Cliquer dessus pour voir les observations et prévisions météorologiques.

Pour changer de carte: cliquez sur les boutons verts avec une croix noire pour zoomer, sur le bouton vert avec un tiret pour effectuer un zoom arrière, ou sur les flèches vertes pour les cartes adjacentes.


METAR-TAF: